sensor_id;sensor_type;location;lat;lon;timestamp;temperature;humidity
31129;DHT22;17777;48.770;8.944;2023-06-26T00:01:30;26.60;32.80
31129;DHT22;17777;48.770;8.944;2023-06-26T00:04:00;26.50;32.90
31129;DHT22;17777;48.770;8.944;2023-06-26T00:06:26;26.50;32.90
31129;DHT22;17777;48.770;8.944;2023-06-26T00:08:53;26.50;33.00
31129;DHT22;17777;48.770;8.944;2023-06-26T00:11:20;26.40;33.10
31129;DHT22;17777;48.770;8.944;2023-06-26T00:13:46;26.40;33.10
31129;DHT22;17777;48.770;8.944;2023-06-26T00:16:12;26.40;33.20
31129;DHT22;17777;48.770;8.944;2023-06-26T00:18:38;26.30;33.40
31129;DHT22;17777;48.770;8.944;2023-06-26T00:21:04;26.20;33.30
31129;DHT22;17777;48.770;8.944;2023-06-26T00:23:29;26.20;33.40
31129;DHT22;17777;48.770;8.944;2023-06-26T00:26:03;26.20;33.50
31129;DHT22;17777;48.770;8.944;2023-06-26T00:28:29;26.20;33.60
31129;DHT22;17777;48.770;8.944;2023-06-26T00:30:56;26.20;33.70
31129;DHT22;17777;48.770;8.944;2023-06-26T00:33:22;26.10;33.70
31129;DHT22;17777;48.770;8.944;2023-06-26T00:35:49;26.10;33.70
31129;DHT22;17777;48.770;8.944;2023-06-26T00:38:15;26.10;33.80
31129;DHT22;17777;48.770;8.944;2023-06-26T00:40:42;26.10;33.80
31129;DHT22;17777;48.770;8.944;2023-06-26T00:43:09;26.00;33.90
31129;DHT22;17777;48.770;8.944;2023-06-26T00:45:35;26.00;33.90
31129;DHT22;17777;48.770;8.944;2023-06-26T00:48:01;25.90;34.00
31129;DHT22;17777;48.770;8.944;2023-06-26T00:50:28;25.90;34.10
31129;DHT22;17777;48.770;8.944;2023-06-26T00:52:54;25.90;34.10
31129;DHT22;17777;48.770;8.944;2023-06-26T00:55:28;25.90;34.20
31129;DHT22;17777;48.770;8.944;2023-06-26T00:57:55;25.80;34.20
31129;DHT22;17777;48.770;8.944;2023-06-26T01:00:21;25.80;34.30
31129;DHT22;17777;48.770;8.944;2023-06-26T01:02:48;25.80;34.40
31129;DHT22;17777;48.770;8.944;2023-06-26T01:05:14;25.80;34.50
31129;DHT22;17777;48.770;8.944;2023-06-26T01:07:49;25.80;34.60
31129;DHT22;17777;48.770;8.944;2023-06-26T01:10:15;25.70;34.50
31129;DHT22;17777;48.770;8.944;2023-06-26T01:12:41;25.70;34.60
31129;DHT22;17777;48.770;8.944;2023-06-26T01:15:07;25.70;34.70
31129;DHT22;17777;48.770;8.944;2023-06-26T01:17:36;25.70;34.80
31129;DHT22;17777;48.770;8.944;2023-06-26T01:20:05;25.70;34.80
31129;DHT22;17777;48.770;8.944;2023-06-26T01:22:47;25.70;34.90
31129;DHT22;17777;48.770;8.944;2023-06-26T01:25:35;25.70;35.40
31129;DHT22;17777;48.770;8.944;2023-06-26T01:28:09;25.70;34.90
31129;DHT22;17777;48.770;8.944;2023-06-26T01:30:40;25.70;34.90
31129;DHT22;17777;48.770;8.944;2023-06-26T01:33:07;25.60;35.10
31129;DHT22;17777;48.770;8.944;2023-06-26T01:35:34;25.60;35.00
31129;DHT22;17777;48.770;8.944;2023-06-26T01:38:15;25.60;35.10
31129;DHT22;17777;48.770;8.944;2023-06-26T01:40:41;25.50;35.50
31129;DHT22;17777;48.770;8.944;2023-06-26T01:43:17;25.50;35.10
31129;DHT22;17777;48.770;8.944;2023-06-26T01:45:49;25.50;35.60
31129;DHT22;17777;48.770;8.944;2023-06-26T01:51:07;25.40;35.40
31129;DHT22;17777;48.770;8.944;2023-06-26T01:53:38;25.50;35.30
31129;DHT22;17777;48.770;8.944;2023-06-26T01:56:11;25.40;35.50
31129;DHT22;17777;48.770;8.944;2023-06-26T01:58:41;25.40;35.30
31129;DHT22;17777;48.770;8.944;2023-06-26T02:01:09;25.40;35.50
31129;DHT22;17777;48.770;8.944;2023-06-26T02:03:35;25.40;35.50
31129;DHT22;17777;48.770;8.944;2023-06-26T02:06:01;25.30;35.50
31129;DHT22;17777;48.770;8.944;2023-06-26T02:08:27;25.30;35.50
31129;DHT22;17777;48.770;8.944;2023-06-26T02:10:56;25.30;35.60
31129;DHT22;17777;48.770;8.944;2023-06-26T02:13:21;25.20;35.70
31129;DHT22;17777;48.770;8.944;2023-06-26T02:15:48;25.20;35.70
31129;DHT22;17777;48.770;8.944;2023-06-26T02:18:14;25.20;35.80
31129;DHT22;17777;48.770;8.944;2023-06-26T02:20:40;25.20;35.90
31129;DHT22;17777;48.770;8.944;2023-06-26T02:23:05;25.20;36.00
31129;DHT22;17777;48.770;8.944;2023-06-26T02:25:31;25.10;36.00
31129;DHT22;17777;48.770;8.944;2023-06-26T02:27:57;25.10;36.10
31129;DHT22;17777;48.770;8.944;2023-06-26T02:30:23;25.10;36.10
31129;DHT22;17777;48.770;8.944;2023-06-26T02:32:49;25.00;36.20
31129;DHT22;17777;48.770;8.944;2023-06-26T02:35:17;25.00;36.20
31129;DHT22;17777;48.770;8.944;2023-06-26T02:37:43;25.00;36.30
31129;DHT22;17777;48.770;8.944;2023-06-26T02:40:10;25.00;36.40
31129;DHT22;17777;48.770;8.944;2023-06-26T02:42:37;25.00;36.40
31129;DHT22;17777;48.770;8.944;2023-06-26T02:45:04;25.00;36.50
31129;DHT22;17777;48.770;8.944;2023-06-26T02:47:32;25.00;36.60
31129;DHT22;17777;48.770;8.944;2023-06-26T02:49:57;25.00;36.60
31129;DHT22;17777;48.770;8.944;2023-06-26T02:52:24;24.90;36.60
31129;DHT22;17777;48.770;8.944;2023-06-26T02:54:49;24.90;36.60
31129;DHT22;17777;48.770;8.944;2023-06-26T02:57:15;24.90;36.70
31129;DHT22;17777;48.770;8.944;2023-06-26T02:59:42;24.90;36.80
31129;DHT22;17777;48.770;8.944;2023-06-26T03:02:11;24.90;36.80
31129;DHT22;17777;48.770;8.944;2023-06-26T03:04:44;24.80;37.50
31129;DHT22;17777;48.770;8.944;2023-06-26T03:07:12;24.80;36.80
31129;DHT22;17777;48.770;8.944;2023-06-26T03:09:40;24.80;37.60
31129;DHT22;17777;48.770;8.944;2023-06-26T03:12:07;24.80;37.00
31129;DHT22;17777;48.770;8.944;2023-06-26T03:14:33;24.80;37.00
31129;DHT22;17777;48.770;8.944;2023-06-26T03:16:59;24.80;37.70
31129;DHT22;17777;48.770;8.944;2023-06-26T03:19:29;24.70;37.10
31129;DHT22;17777;48.770;8.944;2023-06-26T03:22:15;24.80;37.20
31129;DHT22;17777;48.770;8.944;2023-06-26T03:24:41;24.70;37.10
31129;DHT22;17777;48.770;8.944;2023-06-26T03:27:09;24.70;37.20
31129;DHT22;17777;48.770;8.944;2023-06-26T03:29:36;24.70;37.30
31129;DHT22;17777;48.770;8.944;2023-06-26T03:32:01;24.70;37.40
31129;DHT22;17777;48.770;8.944;2023-06-26T03:34:28;24.70;37.40
31129;DHT22;17777;48.770;8.944;2023-06-26T03:36:54;24.70;37.50
31129;DHT22;17777;48.770;8.944;2023-06-26T03:39:20;24.60;37.40
31129;DHT22;17777;48.770;8.944;2023-06-26T03:41:46;24.60;37.50
31129;DHT22;17777;48.770;8.944;2023-06-26T03:44:12;24.60;37.50
31129;DHT22;17777;48.770;8.944;2023-06-26T03:46:45;24.60;37.60
31129;DHT22;17777;48.770;8.944;2023-06-26T03:49:10;24.60;37.60
31129;DHT22;17777;48.770;8.944;2023-06-26T03:51:37;24.60;37.70
31129;DHT22;17777;48.770;8.944;2023-06-26T03:54:02;24.60;37.70
31129;DHT22;17777;48.770;8.944;2023-06-26T03:56:28;24.60;37.80
31129;DHT22;17777;48.770;8.944;2023-06-26T03:58:54;24.60;37.80
31129;DHT22;17777;48.770;8.944;2023-06-26T04:01:20;24.60;37.80
31129;DHT22;17777;48.770;8.944;2023-06-26T04:03:48;24.50;37.80
31129;DHT22;17777;48.770;8.944;2023-06-26T04:06:14;24.50;37.90
31129;DHT22;17777;48.770;8.944;2023-06-26T04:08:40;24.50;37.90
31129;DHT22;17777;48.770;8.944;2023-06-26T04:11:05;24.50;37.90
31129;DHT22;17777;48.770;8.944;2023-06-26T04:13:32;24.50;38.00
31129;DHT22;17777;48.770;8.944;2023-06-26T04:15:57;24.50;38.10
31129;DHT22;17777;48.770;8.944;2023-06-26T04:18:23;24.50;38.10
31129;DHT22;17777;48.770;8.944;2023-06-26T04:21:07;24.50;38.20
31129;DHT22;17777;48.770;8.944;2023-06-26T04:23:35;24.40;38.80
31129;DHT22;17777;48.770;8.944;2023-06-26T04:26:00;24.40;38.20
31129;DHT22;17777;48.770;8.944;2023-06-26T04:28:28;24.40;38.30
31129;DHT22;17777;48.770;8.944;2023-06-26T04:30:54;24.40;38.40
31129;DHT22;17777;48.770;8.944;2023-06-26T04:33:20;24.40;38.40
31129;DHT22;17777;48.770;8.944;2023-06-26T04:35:45;24.40;38.50
31129;DHT22;17777;48.770;8.944;2023-06-26T04:38:14;24.40;38.50
31129;DHT22;17777;48.770;8.944;2023-06-26T04:40:41;24.40;38.60
31129;DHT22;17777;48.770;8.944;2023-06-26T04:43:07;24.40;38.70
31129;DHT22;17777;48.770;8.944;2023-06-26T04:45:32;24.40;38.70
31129;DHT22;17777;48.770;8.944;2023-06-26T04:47:58;24.40;38.70
31129;DHT22;17777;48.770;8.944;2023-06-26T04:50:25;24.40;38.80
31129;DHT22;17777;48.770;8.944;2023-06-26T04:52:53;24.40;38.90
31129;DHT22;17777;48.770;8.944;2023-06-26T04:55:19;24.40;39.00
31129;DHT22;17777;48.770;8.944;2023-06-26T04:57:47;24.40;39.00
31129;DHT22;17777;48.770;8.944;2023-06-26T05:00:13;24.40;39.10
31129;DHT22;17777;48.770;8.944;2023-06-26T05:02:40;24.50;39.30
31129;DHT22;17777;48.770;8.944;2023-06-26T05:05:07;24.50;39.40
31129;DHT22;17777;48.770;8.944;2023-06-26T05:07:33;24.50;39.40
31129;DHT22;17777;48.770;8.944;2023-06-26T05:09:58;24.60;39.30
31129;DHT22;17777;48.770;8.944;2023-06-26T05:12:24;24.60;39.30
31129;DHT22;17777;48.770;8.944;2023-06-26T05:14:50;24.60;39.30
31129;DHT22;17777;48.770;8.944;2023-06-26T05:17:16;24.60;39.30
31129;DHT22;17777;48.770;8.944;2023-06-26T05:19:42;24.70;39.30
31129;DHT22;17777;48.770;8.944;2023-06-26T05:22:08;24.70;39.40
31129;DHT22;17777;48.770;8.944;2023-06-26T05:24:38;24.70;39.40
31129;DHT22;17777;48.770;8.944;2023-06-26T05:27:05;24.80;39.60
31129;DHT22;17777;48.770;8.944;2023-06-26T05:29:32;24.80;39.50
31129;DHT22;17777;48.770;8.944;2023-06-26T05:31:59;24.90;39.60
31129;DHT22;17777;48.770;8.944;2023-06-26T05:34:26;24.90;39.60
31129;DHT22;17777;48.770;8.944;2023-06-26T05:36:58;25.00;39.60
31129;DHT22;17777;48.770;8.944;2023-06-26T05:39:25;25.00;39.80
31129;DHT22;17777;48.770;8.944;2023-06-26T05:41:51;25.10;39.60
31129;DHT22;17777;48.770;8.944;2023-06-26T05:44:17;25.10;39.60
31129;DHT22;17777;48.770;8.944;2023-06-26T05:46:43;25.20;39.70
31129;DHT22;17777;48.770;8.944;2023-06-26T05:49:10;25.30;39.80
31129;DHT22;17777;48.770;8.944;2023-06-26T05:51:36;25.30;39.70
31129;DHT22;17777;48.770;8.944;2023-06-26T05:54:03;25.40;39.80
31129;DHT22;17777;48.770;8.944;2023-06-26T05:56:29;25.40;39.80
31129;DHT22;17777;48.770;8.944;2023-06-26T05:58:56;25.50;39.90
31129;DHT22;17777;48.770;8.944;2023-06-26T06:01:22;25.50;39.80
31129;DHT22;17777;48.770;8.944;2023-06-26T06:03:49;25.60;39.80
31129;DHT22;17777;48.770;8.944;2023-06-26T06:06:15;25.70;39.90
31129;DHT22;17777;48.770;8.944;2023-06-26T06:08:41;25.70;39.80
31129;DHT22;17777;48.770;8.944;2023-06-26T06:11:07;25.80;39.80
31129;DHT22;17777;48.770;8.944;2023-06-26T06:13:33;25.90;39.90
31129;DHT22;17777;48.770;8.944;2023-06-26T06:15:59;26.00;39.80
31129;DHT22;17777;48.770;8.944;2023-06-26T06:18:25;26.00;39.80
31129;DHT22;17777;48.770;8.944;2023-06-26T06:20:51;26.10;39.80
31129;DHT22;17777;48.770;8.944;2023-06-26T06:23:17;26.20;39.80
31129;DHT22;17777;48.770;8.944;2023-06-26T06:25:43;26.30;39.90
31129;DHT22;17777;48.770;8.944;2023-06-26T06:28:08;26.30;39.90
31129;DHT22;17777;48.770;8.944;2023-06-26T06:30:34;26.40;39.90
31129;DHT22;17777;48.770;8.944;2023-06-26T06:33:01;26.50;39.90
31129;DHT22;17777;48.770;8.944;2023-06-26T06:35:27;26.60;40.00
31129;DHT22;17777;48.770;8.944;2023-06-26T06:37:52;26.70;40.00
31129;DHT22;17777;48.770;8.944;2023-06-26T06:40:18;26.70;40.00
31129;DHT22;17777;48.770;8.944;2023-06-26T06:42:44;26.90;40.00
31129;DHT22;17777;48.770;8.944;2023-06-26T06:45:10;27.00;40.00
31129;DHT22;17777;48.770;8.944;2023-06-26T06:47:36;27.10;40.00
31129;DHT22;17777;48.770;8.944;2023-06-26T06:50:02;27.10;39.90
31129;DHT22;17777;48.770;8.944;2023-06-26T06:52:37;27.20;39.80
31129;DHT22;17777;48.770;8.944;2023-06-26T06:55:06;27.30;39.90
31129;DHT22;17777;48.770;8.944;2023-06-26T06:57:35;27.50;39.90
31129;DHT22;17777;48.770;8.944;2023-06-26T07:00:04;27.50;39.60
31129;DHT22;17777;48.770;8.944;2023-06-26T07:02:38;27.70;39.60
31129;DHT22;17777;48.770;8.944;2023-06-26T07:05:04;27.80;39.60
31129;DHT22;17777;48.770;8.944;2023-06-26T07:07:32;27.80;39.30
31129;DHT22;17777;48.770;8.944;2023-06-26T07:10:02;28.00;39.20
31129;DHT22;17777;48.770;8.944;2023-06-26T07:12:29;28.00;39.20
31129;DHT22;17777;48.770;8.944;2023-06-26T07:14:56;28.10;39.10
31129;DHT22;17777;48.770;8.944;2023-06-26T07:17:22;28.30;39.10
31129;DHT22;17777;48.770;8.944;2023-06-26T07:19:49;28.40;38.80
31129;DHT22;17777;48.770;8.944;2023-06-26T07:22:15;28.50;38.60
31129;DHT22;17777;48.770;8.944;2023-06-26T07:24:41;28.70;38.50
31129;DHT22;17777;48.770;8.944;2023-06-26T07:27:07;28.80;38.30
31129;DHT22;17777;48.770;8.944;2023-06-26T07:29:33;28.90;38.10
31129;DHT22;17777;48.770;8.944;2023-06-26T07:31:59;29.10;37.90
31129;DHT22;17777;48.770;8.944;2023-06-26T07:34:24;29.20;37.70
31129;DHT22;17777;48.770;8.944;2023-06-26T07:36:50;29.30;37.50
31129;DHT22;17777;48.770;8.944;2023-06-26T07:39:16;29.40;37.30
31129;DHT22;17777;48.770;8.944;2023-06-26T07:41:42;29.50;37.00
31129;DHT22;17777;48.770;8.944;2023-06-26T07:44:08;29.70;36.80
31129;DHT22;17777;48.770;8.944;2023-06-26T07:46:33;29.80;36.70
31129;DHT22;17777;48.770;8.944;2023-06-26T07:48:59;29.80;36.40
31129;DHT22;17777;48.770;8.944;2023-06-26T07:51:25;30.00;36.40
31129;DHT22;17777;48.770;8.944;2023-06-26T07:53:50;30.00;36.20
31129;DHT22;17777;48.770;8.944;2023-06-26T07:56:17;30.10;36.10
31129;DHT22;17777;48.770;8.944;2023-06-26T07:58:43;30.20;36.00
31129;DHT22;17777;48.770;8.944;2023-06-26T08:01:09;30.30;35.90
31129;DHT22;17777;48.770;8.944;2023-06-26T08:03:35;30.40;35.70
31129;DHT22;17777;48.770;8.944;2023-06-26T08:06:00;30.40;35.50
31129;DHT22;17777;48.770;8.944;2023-06-26T08:08:26;30.50;35.50
31129;DHT22;17777;48.770;8.944;2023-06-26T08:10:52;30.60;35.40
31129;DHT22;17777;48.770;8.944;2023-06-26T08:13:18;30.70;35.20
31129;DHT22;17777;48.770;8.944;2023-06-26T08:15:43;30.80;35.10
31129;DHT22;17777;48.770;8.944;2023-06-26T08:18:09;30.80;35.00
31129;DHT22;17777;48.770;8.944;2023-06-26T08:20:35;31.00;34.90
31129;DHT22;17777;48.770;8.944;2023-06-26T08:23:04;31.00;34.70
31129;DHT22;17777;48.770;8.944;2023-06-26T08:25:29;31.10;34.50
31129;DHT22;17777;48.770;8.944;2023-06-26T08:27:55;31.20;34.50
31129;DHT22;17777;48.770;8.944;2023-06-26T08:30:21;31.30;34.50
31129;DHT22;17777;48.770;8.944;2023-06-26T08:32:48;31.40;34.30
31129;DHT22;17777;48.770;8.944;2023-06-26T08:35:16;31.50;34.20
31129;DHT22;17777;48.770;8.944;2023-06-26T08:37:42;31.60;34.00
31129;DHT22;17777;48.770;8.944;2023-06-26T08:40:08;31.60;34.00
31129;DHT22;17777;48.770;8.944;2023-06-26T08:42:34;31.70;33.90
31129;DHT22;17777;48.770;8.944;2023-06-26T08:45:00;31.80;33.80
31129;DHT22;17777;48.770;8.944;2023-06-26T08:47:26;31.80;33.60
31129;DHT22;17777;48.770;8.944;2023-06-26T08:50:30;31.90;33.50
31129;DHT22;17777;48.770;8.944;2023-06-26T08:52:54;32.00;33.40
31129;DHT22;17777;48.770;8.944;2023-06-26T08:55:25;32.10;33.10
31129;DHT22;17777;48.770;8.944;2023-06-26T08:57:53;32.10;33.10
31129;DHT22;17777;48.770;8.944;2023-06-26T09:00:21;32.20;33.10
31129;DHT22;17777;48.770;8.944;2023-06-26T09:02:47;32.30;33.10
31129;DHT22;17777;48.770;8.944;2023-06-26T09:05:13;32.40;33.00
31129;DHT22;17777;48.770;8.944;2023-06-26T09:07:40;32.40;32.70
31129;DHT22;17777;48.770;8.944;2023-06-26T09:10:06;32.50;32.70
31129;DHT22;17777;48.770;8.944;2023-06-26T09:12:33;32.50;32.80
31129;DHT22;17777;48.770;8.944;2023-06-26T09:15:01;32.60;32.70
31129;DHT22;17777;48.770;8.944;2023-06-26T09:17:33;32.70;32.60
31129;DHT22;17777;48.770;8.944;2023-06-26T09:20:05;32.70;32.10
31129;DHT22;17777;48.770;8.944;2023-06-26T09:22:35;32.90;32.40
31129;DHT22;17777;48.770;8.944;2023-06-26T09:25:04;32.90;32.20
31129;DHT22;17777;48.770;8.944;2023-06-26T09:27:31;33.00;32.20
31129;DHT22;17777;48.770;8.944;2023-06-26T09:29:57;33.00;32.00
31129;DHT22;17777;48.770;8.944;2023-06-26T09:32:27;33.00;31.90
31129;DHT22;17777;48.770;8.944;2023-06-26T09:34:54;33.10;31.60
31129;DHT22;17777;48.770;8.944;2023-06-26T09:37:22;33.10;31.60
31129;DHT22;17777;48.770;8.944;2023-06-26T09:39:48;33.10;31.70
31129;DHT22;17777;48.770;8.944;2023-06-26T09:42:16;33.20;31.60
31129;DHT22;17777;48.770;8.944;2023-06-26T09:44:45;33.20;31.20
31129;DHT22;17777;48.770;8.944;2023-06-26T09:47:12;33.30;30.90
31129;DHT22;17777;48.770;8.944;2023-06-26T09:49:42;33.40;31.20
31129;DHT22;17777;48.770;8.944;2023-06-26T09:52:09;33.40;30.80
31129;DHT22;17777;48.770;8.944;2023-06-26T09:54:35;33.50;31.00
31129;DHT22;17777;48.770;8.944;2023-06-26T09:57:08;33.60;30.90
31129;DHT22;17777;48.770;8.944;2023-06-26T09:59:35;33.60;30.30
31129;DHT22;17777;48.770;8.944;2023-06-26T10:02:01;33.60;30.70
31129;DHT22;17777;48.770;8.944;2023-06-26T10:04:27;33.70;30.50
31129;DHT22;17777;48.770;8.944;2023-06-26T10:06:56;33.80;30.50
31129;DHT22;17777;48.770;8.944;2023-06-26T10:09:22;33.70;31.20
31129;DHT22;17777;48.770;8.944;2023-06-26T10:11:54;33.80;30.80
31129;DHT22;17777;48.770;8.944;2023-06-26T10:14:26;33.80;30.90
31129;DHT22;17777;48.770;8.944;2023-06-26T10:16:57;33.80;30.90
31129;DHT22;17777;48.770;8.944;2023-06-26T10:19:24;33.90;31.00
31129;DHT22;17777;48.770;8.944;2023-06-26T10:21:53;33.80;31.00
31129;DHT22;17777;48.770;8.944;2023-06-26T10:24:21;33.80;31.00
31129;DHT22;17777;48.770;8.944;2023-06-26T10:26:52;33.80;31.20
31129;DHT22;17777;48.770;8.944;2023-06-26T10:29:23;33.90;31.00
31129;DHT22;17777;48.770;8.944;2023-06-26T10:31:53;33.80;30.90
31129;DHT22;17777;48.770;8.944;2023-06-26T10:34:21;33.90;30.90
31129;DHT22;17777;48.770;8.944;2023-06-26T10:37:01;33.80;30.80
31129;DHT22;17777;48.770;8.944;2023-06-26T10:42:11;33.80;30.60
31129;DHT22;17777;48.770;8.944;2023-06-26T10:44:43;33.80;30.90
31129;DHT22;17777;48.770;8.944;2023-06-26T10:47:11;33.80;30.50
31129;DHT22;17777;48.770;8.944;2023-06-26T10:55:48;33.80;30.50
31129;DHT22;17777;48.770;8.944;2023-06-26T10:58:41;33.80;30.60
31129;DHT22;17777;48.770;8.944;2023-06-26T11:01:26;33.80;30.70
31129;DHT22;17777;48.770;8.944;2023-06-26T11:06:23;33.70;31.10
31129;DHT22;17777;48.770;8.944;2023-06-26T11:08:53;33.70;31.10
31129;DHT22;17777;48.770;8.944;2023-06-26T11:11:21;33.60;31.20
31129;DHT22;17777;48.770;8.944;2023-06-26T11:13:48;33.70;31.40
31129;DHT22;17777;48.770;8.944;2023-06-26T11:16:14;33.60;31.40
31129;DHT22;17777;48.770;8.944;2023-06-26T11:18:41;33.60;31.50
31129;DHT22;17777;48.770;8.944;2023-06-26T11:21:11;33.60;31.60
31129;DHT22;17777;48.770;8.944;2023-06-26T11:23:40;33.60;31.70
31129;DHT22;17777;48.770;8.944;2023-06-26T11:26:17;33.60;31.80
31129;DHT22;17777;48.770;8.944;2023-06-26T11:28:51;33.60;32.10
31129;DHT22;17777;48.770;8.944;2023-06-26T11:31:32;33.60;32.20
31129;DHT22;17777;48.770;8.944;2023-06-26T11:34:04;33.60;32.20
31129;DHT22;17777;48.770;8.944;2023-06-26T11:36:38;33.60;32.20
31129;DHT22;17777;48.770;8.944;2023-06-26T11:39:05;33.60;32.20
31129;DHT22;17777;48.770;8.944;2023-06-26T11:41:33;33.60;32.40
31129;DHT22;17777;48.770;8.944;2023-06-26T11:44:09;33.60;32.40
31129;DHT22;17777;48.770;8.944;2023-06-26T11:46:36;33.70;32.40
31129;DHT22;17777;48.770;8.944;2023-06-26T11:49:07;33.70;32.40
31129;DHT22;17777;48.770;8.944;2023-06-26T11:51:33;33.80;32.40
31129;DHT22;17777;48.770;8.944;2023-06-26T11:54:03;33.80;32.40
31129;DHT22;17777;48.770;8.944;2023-06-26T11:56:30;33.80;32.40
31129;DHT22;17777;48.770;8.944;2023-06-26T11:59:03;33.80;32.40
31129;DHT22;17777;48.770;8.944;2023-06-26T12:01:35;33.90;32.30
31129;DHT22;17777;48.770;8.944;2023-06-26T12:04:10;33.90;32.40
31129;DHT22;17777;48.770;8.944;2023-06-26T12:06:39;33.90;32.50
31129;DHT22;17777;48.770;8.944;2023-06-26T12:09:09;33.90;32.40
31129;DHT22;17777;48.770;8.944;2023-06-26T12:11:38;34.00;32.40
31129;DHT22;17777;48.770;8.944;2023-06-26T12:14:06;34.00;32.40
31129;DHT22;17777;48.770;8.944;2023-06-26T12:16:33;34.00;32.40
31129;DHT22;17777;48.770;8.944;2023-06-26T12:19:06;34.00;32.40
31129;DHT22;17777;48.770;8.944;2023-06-26T12:24:08;34.00;32.50
31129;DHT22;17777;48.770;8.944;2023-06-26T12:26:36;34.00;32.50
31129;DHT22;17777;48.770;8.944;2023-06-26T12:29:09;34.00;32.40
31129;DHT22;17777;48.770;8.944;2023-06-26T12:31:40;34.10;32.40
31129;DHT22;17777;48.770;8.944;2023-06-26T12:34:12;34.00;32.40
31129;DHT22;17777;48.770;8.944;2023-06-26T12:36:44;34.10;32.50
31129;DHT22;17777;48.770;8.944;2023-06-26T12:39:12;34.00;32.40
31129;DHT22;17777;48.770;8.944;2023-06-26T12:41:57;34.10;32.50
31129;DHT22;17777;48.770;8.944;2023-06-26T12:44:27;34.10;32.40
31129;DHT22;17777;48.770;8.944;2023-06-26T12:46:59;34.10;32.40
31129;DHT22;17777;48.770;8.944;2023-06-26T12:49:45;34.10;32.50
31129;DHT22;17777;48.770;8.944;2023-06-26T12:52:16;34.10;32.40
31129;DHT22;17777;48.770;8.944;2023-06-26T12:54:44;34.10;32.30
31129;DHT22;17777;48.770;8.944;2023-06-26T12:57:10;34.10;32.30
31129;DHT22;17777;48.770;8.944;2023-06-26T12:59:37;34.10;32.20
31129;DHT22;17777;48.770;8.944;2023-06-26T13:02:03;34.20;32.80
31129;DHT22;17777;48.770;8.944;2023-06-26T13:04:30;34.10;32.10
31129;DHT22;17777;48.770;8.944;2023-06-26T13:06:56;34.20;32.10
31129;DHT22;17777;48.770;8.944;2023-06-26T13:09:23;34.10;31.90
31129;DHT22;17777;48.770;8.944;2023-06-26T13:11:51;34.20;31.90
31129;DHT22;17777;48.770;8.944;2023-06-26T13:14:17;34.20;31.90
31129;DHT22;17777;48.770;8.944;2023-06-26T13:16:43;34.20;31.70
31129;DHT22;17777;48.770;8.944;2023-06-26T13:19:09;34.20;31.60
31129;DHT22;17777;48.770;8.944;2023-06-26T13:21:35;34.20;31.50
31129;DHT22;17777;48.770;8.944;2023-06-26T13:24:02;34.20;31.30
31129;DHT22;17777;48.770;8.944;2023-06-26T13:26:29;34.20;31.30
31129;DHT22;17777;48.770;8.944;2023-06-26T13:28:56;34.20;31.20
31129;DHT22;17777;48.770;8.944;2023-06-26T13:31:22;34.20;31.00
31129;DHT22;17777;48.770;8.944;2023-06-26T13:33:48;34.20;30.90
31129;DHT22;17777;48.770;8.944;2023-06-26T13:36:20;34.30;30.70
31129;DHT22;17777;48.770;8.944;2023-06-26T13:38:46;34.20;30.50
31129;DHT22;17777;48.770;8.944;2023-06-26T13:41:15;34.20;30.50
31129;DHT22;17777;48.770;8.944;2023-06-26T13:43:41;34.20;30.40
31129;DHT22;17777;48.770;8.944;2023-06-26T13:46:06;34.20;30.40
31129;DHT22;17777;48.770;8.944;2023-06-26T13:48:32;34.20;30.30
31129;DHT22;17777;48.770;8.944;2023-06-26T13:50:58;34.20;30.20
31129;DHT22;17777;48.770;8.944;2023-06-26T13:53:25;34.20;30.40
31129;DHT22;17777;48.770;8.944;2023-06-26T13:55:51;34.20;30.20
31129;DHT22;17777;48.770;8.944;2023-06-26T13:58:16;34.20;30.10
31129;DHT22;17777;48.770;8.944;2023-06-26T14:00:42;34.30;30.10
31129;DHT22;17777;48.770;8.944;2023-06-26T14:03:10;34.30;30.00
31129;DHT22;17777;48.770;8.944;2023-06-26T14:05:37;34.30;30.00
31129;DHT22;17777;48.770;8.944;2023-06-26T14:08:04;34.30;29.90
31129;DHT22;17777;48.770;8.944;2023-06-26T14:10:31;34.20;29.80
31129;DHT22;17777;48.770;8.944;2023-06-26T14:12:59;34.30;29.80
31129;DHT22;17777;48.770;8.944;2023-06-26T14:15:25;34.30;29.70
31129;DHT22;17777;48.770;8.944;2023-06-26T14:17:51;34.30;29.70
31129;DHT22;17777;48.770;8.944;2023-06-26T14:20:18;34.30;29.70
31129;DHT22;17777;48.770;8.944;2023-06-26T14:22:46;34.30;29.60
31129;DHT22;17777;48.770;8.944;2023-06-26T14:25:13;34.30;29.50
31129;DHT22;17777;48.770;8.944;2023-06-26T14:27:39;34.30;29.40
31129;DHT22;17777;48.770;8.944;2023-06-26T14:30:06;34.20;29.40
31129;DHT22;17777;48.770;8.944;2023-06-26T14:32:35;34.20;29.40
31129;DHT22;17777;48.770;8.944;2023-06-26T14:35:02;34.20;29.30
31129;DHT22;17777;48.770;8.944;2023-06-26T14:37:29;34.20;29.40
31129;DHT22;17777;48.770;8.944;2023-06-26T14:39:56;34.20;29.40
31129;DHT22;17777;48.770;8.944;2023-06-26T14:42:22;34.10;29.40
31129;DHT22;17777;48.770;8.944;2023-06-26T14:44:48;34.20;29.50
31129;DHT22;17777;48.770;8.944;2023-06-26T14:47:16;34.10;29.90
31129;DHT22;17777;48.770;8.944;2023-06-26T14:49:42;34.10;29.40
31129;DHT22;17777;48.770;8.944;2023-06-26T14:52:08;34.10;29.40
31129;DHT22;17777;48.770;8.944;2023-06-26T14:54:35;34.10;29.50
31129;DHT22;17777;48.770;8.944;2023-06-26T14:57:05;34.10;29.50
31129;DHT22;17777;48.770;8.944;2023-06-26T14:59:32;34.10;29.40
31129;DHT22;17777;48.770;8.944;2023-06-26T15:01:57;34.10;29.30
31129;DHT22;17777;48.770;8.944;2023-06-26T15:04:23;34.10;29.20
31129;DHT22;17777;48.770;8.944;2023-06-26T15:06:49;34.10;29.10
31129;DHT22;17777;48.770;8.944;2023-06-26T15:09:15;34.10;29.10
31129;DHT22;17777;48.770;8.944;2023-06-26T15:11:41;34.00;29.00
31129;DHT22;17777;48.770;8.944;2023-06-26T15:14:06;34.00;29.10
31129;DHT22;17777;48.770;8.944;2023-06-26T15:16:32;34.00;29.10
31129;DHT22;17777;48.770;8.944;2023-06-26T15:18:58;34.00;29.00
31129;DHT22;17777;48.770;8.944;2023-06-26T15:21:24;33.90;29.00
31129;DHT22;17777;48.770;8.944;2023-06-26T15:23:50;33.90;29.10
31129;DHT22;17777;48.770;8.944;2023-06-26T15:26:16;33.80;29.00
31129;DHT22;17777;48.770;8.944;2023-06-26T15:28:42;33.80;28.90
31129;DHT22;17777;48.770;8.944;2023-06-26T15:31:08;33.80;28.90
31129;DHT22;17777;48.770;8.944;2023-06-26T15:33:34;33.80;29.40
31129;DHT22;17777;48.770;8.944;2023-06-26T15:36:00;33.70;28.90
31129;DHT22;17777;48.770;8.944;2023-06-26T15:38:29;33.60;28.90
31129;DHT22;17777;48.770;8.944;2023-06-26T15:40:55;33.60;28.90
31129;DHT22;17777;48.770;8.944;2023-06-26T15:43:21;33.60;29.00
31129;DHT22;17777;48.770;8.944;2023-06-26T15:45:47;33.60;29.10
31129;DHT22;17777;48.770;8.944;2023-06-26T15:48:13;33.50;29.10
31129;DHT22;17777;48.770;8.944;2023-06-26T15:50:39;33.50;29.10